Latest Weather Observations for Witchcliffe

IDW60801

Issued at 8:33 am WST Wednesday 16 January 2019 (issued every 10 minutes, with the page automatically refreshed every 10 minutes)

About weather observations | Map of weather stations | Latest weather observations for WA | Other Formats
Station Details ID: 009746 Name: WITCHCLIFFE Lat: -34.03 Lon: 115.10 Height: 80.0 m
Data from the previous 72 hours. | See also: Recent months at Witchcliffe
Date/Time
WST
Temp
°C
App
Temp
°C
Dew
Point
°C
Rel
Hum
%
Delta-T
°C
Wind Press
QNH
hPa
Press
MSL
hPa
Rain since
9am
mm
Dir  Spd
km/h
Gust
km/h
Spd
kts
Gust
kts
16/08:30am 19.3 16.6 8.9 51 5.5 S 13 19 7 10 1014.4 1014.2 0.0
16/08:00am 18.3 17.4 9.4 56 4.7 SSW 4 11 2 6 1014.3 1014.1 0.0
16/07:30am 17.8 18.2 11.1 65 3.6 CALM 0 0 0 0 1014.2 1014.0 0.0
16/07:00am 15.9 16.3 11.3 74 2.5 CALM 0 0 0 0 1014.2 1014.0 0.0
16/06:30am 12.4 12.7 11.0 91 0.7 CALM 0 0 0 0 1014.0 1013.8 0.0
16/06:00am 10.4 10.3 9.6 95 0.4 CALM 0 0 0 0 1013.8 1013.6 0.0
16/05:30am 10.0 9.8 8.9 93 0.5 CALM 0 0 0 0 1014.0 1013.8 0.0
16/05:00am 10.5 10.3 9.1 91 0.7 CALM 0 0 0 0 1014.1 1013.9 0.0
16/04:30am 11.9 12.0 10.1 89 0.9 CALM 0 0 0 0 1014.0 1013.8 0.0
16/04:00am 11.7 11.8 10.1 90 0.8 CALM 0 0 0 0 1014.0 1013.8 0.0
16/03:30am 11.4 11.5 10.3 93 0.6 CALM 0 0 0 0 1013.9 1013.7 0.0
16/03:00am 10.6 10.5 9.5 93 0.6 CALM 0 0 0 0 1013.9 1013.7 0.0
16/02:30am 10.6 10.4 8.9 89 0.8 CALM 0 0 0 0 1014.1 1013.9 0.0
16/02:00am 10.7 10.4 8.8 88 0.9 CALM 0 0 0 0 1014.2 1014.0 0.0
16/01:30am 11.1 10.9 9.0 87 1.0 CALM 0 0 0 0 1014.2 1014.0 0.0
16/01:00am 11.5 10.9 9.1 85 1.2 SSW 2 7 1 4 1014.3 1014.1 0.0
16/12:30am 12.5 12.4 9.3 81 1.6 CALM 0 7 0 4 1014.4 1014.2 0.0
16/12:00am 13.3 12.2 9.9 80 1.8 S 6 9 3 5 1014.6 1014.4 0.0
 
Date/Time
WST
Temp
°C
App
Temp
°C
Dew
Point
°C
Rel
Hum
%
Delta-T
°C
Wind Press
QNH
hPa
Press
MSL
hPa
Rain since
9am
mm
Dir  Spd
km/h
Gust
km/h
Spd
kts
Gust
kts
15/11:30pm 14.2 12.6 10.2 77 2.1 S 9 13 5 7 1014.6 1014.4 0.0
15/11:00pm 14.7 12.7 10.3 75 2.3 S 11 17 6 9 1014.7 1014.5 0.0
15/10:30pm 14.7 12.7 10.3 75 2.3 S 11 17 6 9 1014.9 1014.7 0.0
15/10:00pm 14.7 12.3 10.1 74 2.4 S 13 17 7 9 1015.1 1014.9 0.0
15/09:30pm 14.9 12.8 9.9 72 2.6 S 11 15 6 8 1015.2 1015.0 0.0
15/09:00pm 15.2 13.1 9.8 70 2.8 S 11 15 6 8 1014.9 1014.7 0.0
15/08:30pm 15.6 13.1 9.7 68 3.1 S 13 17 7 9 1014.6 1014.4 0.0
15/08:00pm 16.1 13.1 9.3 64 3.5 S 15 24 8 13 1014.5 1014.3 0.0
15/07:30pm 16.7 13.4 9.4 62 3.8 S 17 28 9 15 1014.4 1014.2 0.0
15/07:00pm 17.6 13.9 9.5 59 4.3 SSE 19 28 10 15 1014.2 1014.0 0.0
15/06:30pm 18.2 14.3 9.5 57 4.6 SSE 20 33 11 18 1014.0 1013.8 0.0
15/06:00pm 19.1 14.4 9.3 53 5.2 SSE 24 32 13 17 1014.0 1013.8 0.0
15/05:30pm 19.1 15.0 8.7 51 5.4 S 20 33 11 18 1013.9 1013.7 0.0
15/05:00pm 20.1 15.4 9.1 49 5.8 SSE 24 33 13 18 1013.9 1013.7 0.0
15/04:30pm 20.3 15.5 8.9 48 6.0 S 24 35 13 19 1013.9 1013.7 0.0
15/04:00pm 21.0 16.0 9.6 48 6.1 S 26 37 14 20 1013.8 1013.6 0.0
15/03:30pm 21.0 16.0 9.6 48 6.1 SE 26 37 14 20 1014.0 1013.8 0.0
15/03:00pm 21.6 16.5 9.2 45 6.6 SSE 26 39 14 21 1014.0 1013.8 0.0
15/02:30pm 22.1 17.3 8.9 43 7.0 S 24 41 13 22 1014.2 1014.0 0.0
15/02:00pm 22.6 18.2 9.0 42 7.3 SSE 22 33 12 18 1014.3 1014.1 0.0
15/01:30pm 21.8 16.9 8.3 42 7.1 SSE 24 35 13 19 1014.4 1014.2 0.0
15/01:00pm 22.3 18.3 9.1 43 7.1 SSE 20 32 11 17 1014.6 1014.4 0.0
15/12:30pm 22.6 18.2 9.0 42 7.3 SSE 22 32 12 17 1015.1 1014.9 0.0
15/12:00pm 21.5 17.4 8.7 44 6.8 S 20 32 11 17 1015.2 1015.0 0.0
15/11:30am 21.7 17.8 9.3 45 6.7 SE 20 30 11 16 1015.4 1015.2 0.0
15/11:00am 20.8 16.9 8.8 46 6.3 SE 19 32 10 17 1015.7 1015.5 0.0
15/10:30am 19.4 15.0 9.0 51 5.5 SE 22 32 12 17 1016.0 1015.8 0.0
15/10:00am 18.9 14.6 9.4 54 5.0 SSE 22 30 12 16 1016.2 1016.0 0.0
15/09:30am 18.5 14.6 9.3 55 4.8 SE 20 30 11 16 1016.2 1016.0 0.0
15/09:00am 17.9 13.5 9.0 56 4.6 SSE 22 30 12 16 1016.2 1016.0 0.0
15/08:30am 18.3 14.6 9.4 56 4.7 SSE 19 26 10 14 1016.3 1016.1 0.0
15/08:00am 18.1 15.7 10.0 59 4.3 SE 13 17 7 9 1016.4 1016.2 0.0
15/07:30am 17.2 14.3 9.6 61 4.0 SE 15 20 8 11 1016.3 1016.1 0.0
15/07:00am 16.6 14.6 10.0 65 3.5 SSE 11 15 6 8 1016.1 1015.9 0.0
15/06:30am 15.0 13.3 9.8 71 2.7 S 9 13 5 7 1015.8 1015.6 0.0
15/06:00am 12.8 11.5 9.8 82 1.5 S 7 9 4 5 1015.7 1015.5 0.0
15/05:30am 11.0 9.4 8.2 83 1.4 SSW 6 7 3 4 1015.5 1015.3 0.0
15/05:00am 11.6 10.1 8.3 80 1.6 S 6 13 3 7 1015.5 1015.3 0.0
15/04:30am 12.2 9.8 8.7 79 1.7 SSW 11 13 6 7 1015.3 1015.1 0.0
15/04:00am 13.5 11.6 9.0 74 2.3 SSE 9 11 5 6 1015.2 1015.0 0.0
15/03:30am 13.9 11.6 8.9 72 2.5 SSE 11 15 6 8 1015.2 1015.0 0.0
15/03:00am 14.5 12.6 8.9 69 2.9 SSE 9 11 5 6 1015.3 1015.1 0.0
15/02:30am 15.2 12.9 9.1 67 3.1 SSE 11 15 6 8 1015.5 1015.3 0.0
15/02:00am 15.3 12.6 8.8 65 3.3 SSE 13 17 7 9 1015.7 1015.5 0.0
15/01:30am 15.4 12.6 8.6 64 3.5 SSE 13 19 7 10 1015.9 1015.7 0.0
15/01:00am 15.6 12.4 8.6 63 3.6 SSE 15 20 8 11 1016.0 1015.8 0.0
15/12:30am 15.6 12.1 8.8 64 3.5 SSE 17 24 9 13 1016.2 1016.0 0.0
15/12:00am 15.1 11.9 8.6 65 3.3 SSE 15 20 8 11 1016.3 1016.1 0.0
 
Date/Time
WST
Temp
°C
App
Temp
°C
Dew
Point
°C
Rel
Hum
%
Delta-T
°C
Wind Press
QNH
hPa
Press
MSL
hPa
Rain since
9am
mm
Dir  Spd
km/h
Gust
km/h
Spd
kts
Gust
kts
14/11:30pm 14.8 11.6 8.3 65 3.3 SSE 15 20 8 11 1016.3 1016.1 0.0
14/11:00pm 14.6 11.3 8.1 65 3.3 S 15 20 8 11 1016.5 1016.3 0.0
14/10:30pm 15.3 11.7 8.3 63 3.5 S 17 22 9 12 1016.7 1016.5 0.0
14/10:00pm 15.7 11.7 8.9 64 3.5 SSE 20 32 11 17 1017.0 1016.8 0.0
14/09:30pm 16.0 11.7 9.2 64 3.5 SSE 22 33 12 18 1017.0 1016.8 0.0
14/09:00pm 15.8 12.0 9.2 65 3.4 SSE 19 26 10 14 1016.9 1016.7 0.0
14/08:30pm 16.2 11.9 9.2 63 3.6 S 22 35 12 19 1016.7 1016.5 0.0
14/08:00pm 16.6 11.5 9.1 61 3.9 S 26 41 14 22 1016.6 1016.4 0.0
14/07:30pm 16.6 11.6 9.5 63 3.7 SSE 26 37 14 20 1016.1 1015.9 0.0
14/07:00pm 17.1 12.4 9.3 60 4.1 SSE 24 33 13 18 1015.8 1015.6 0.0
14/06:30pm 18.0 12.6 9.4 57 4.5 SSE 28 39 15 21 1015.5 1015.3 0.0
14/06:00pm 18.8 13.7 9.3 54 5.0 S 26 39 14 21 1015.1 1014.9 0.0
14/05:30pm 19.2 14.1 9.1 52 5.3 SSE 26 35 14 19 1014.9 1014.7 0.0
14/05:00pm 19.9 14.5 9.5 51 5.5 SSE 28 44 15 24 1014.8 1014.6 0.0
14/04:30pm 20.3 14.9 9.5 50 5.8 SSE 28 41 15 22 1014.9 1014.7 0.0
14/04:00pm 21.2 16.0 10.1 49 6.0 SSE 28 39 15 21 1014.9 1014.7 0.0
14/03:30pm 21.4 16.0 9.6 47 6.4 S 28 41 15 22 1014.8 1014.6 0.0
14/03:00pm 22.1 17.0 9.3 44 6.9 SSE 26 37 14 20 1014.8 1014.6 0.0
14/02:30pm 22.8 17.8 9.6 43 7.2 SSE 26 37 14 20 1014.9 1014.7 0.0
14/02:00pm 22.4 17.3 9.2 43 7.1 SSE 26 39 14 21 1015.0 1014.8 0.0
14/01:30pm 22.7 18.4 9.5 43 7.2 SSE 22 39 12 21 1015.2 1015.0 0.0
14/01:00pm 22.6 18.7 9.4 43 7.1 SSE 20 33 11 18 1015.5 1015.3 0.0
14/12:30pm 23.5 19.4 8.8 39 7.9 SSE 20 37 11 20 1015.7 1015.5 0.0
14/12:00pm 22.1 17.2 8.6 42 7.2 S 24 33 13 18 1015.9 1015.7 0.0
14/11:30am 22.3 17.8 8.4 41 7.4 SSE 22 33 12 18 1016.0 1015.8 0.0
14/11:00am 22.0 17.4 8.2 41 7.3 SSE 22 35 12 19 1016.1 1015.9 0.0
14/10:30am 22.0 18.0 8.9 43 7.0 SE 20 37 11 20 1016.5 1016.3 0.0
14/10:00am 21.2 17.1 8.8 45 6.6 SE 20 32 11 17 1016.6 1016.4 0.0
14/09:30am 20.4 15.8 8.1 45 6.4 SSE 22 33 12 18 1017.0 1016.8 0.0
14/09:00am 19.9 15.8 7.9 46 6.2 SE 19 28 10 15 1017.2 1017.0 0.0
14/08:30am 19.5 15.9 8.5 49 5.7 SE 17 24 9 13 1017.4 1017.2 0.0
14/08:00am 18.5 14.9 8.5 52 5.2 ESE 17 24 9 13 1017.7 1017.5 0.0
14/07:30am 17.1 13.7 9.3 60 4.1 ESE 17 26 9 14 1017.8 1017.6 0.0
14/07:00am 16.0 14.3 9.9 67 3.2 SE 9 15 5 8 1018.0 1017.8 0.0
14/06:30am 14.1 13.9 10.3 78 2.0 SSE 2 7 1 4 1018.0 1017.8 0.0
14/06:00am 12.5 12.7 10.4 87 1.1 CALM 0 0 0 0 1017.9 1017.7 0.0
14/05:30am 12.2 11.1 9.9 86 1.2 SSE 6 9 3 5 1017.7 1017.5 0.0
14/05:00am 12.4 12.0 9.8 84 1.3 SSE 2 7 1 4 1017.5 1017.3 0.0
14/04:30am 12.5 12.1 9.9 84 1.3 SE 2 11 1 6 1017.4 1017.2 0.0
14/04:00am 12.7 11.9 9.7 82 1.5 SE 4 11 2 6 1017.2 1017.0 0.0
14/03:30am 12.7 11.4 9.9 83 1.4 SSE 7 13 4 7 1017.0 1016.8 0.0
14/03:00am 12.8 11.5 10.0 83 1.4 SE 7 11 4 6 1017.1 1016.9 0.0
14/02:30am 13.1 11.5 10.3 83 1.5 SSE 9 13 5 7 1017.2 1017.0 0.0
14/02:00am 13.0 11.4 10.2 83 1.4 SSE 9 11 5 6 1017.4 1017.2 0.0
14/01:30am 13.4 11.8 10.2 81 1.7 SSE 9 13 5 7 1017.6 1017.4 0.0
14/01:00am 13.7 11.7 10.3 80 1.8 SE 11 15 6 8 1017.6 1017.4 0.0
14/12:30am 14.1 12.5 10.1 77 2.1 SE 9 13 5 7 1017.7 1017.5 0.0
14/12:00am 14.8 12.4 10.2 74 2.4 SSE 13 19 7 10 1017.9 1017.7 0.0
 
Date/Time
WST
Temp
°C
App
Temp
°C
Dew
Point
°C
Rel
Hum
%
Delta-T
°C
Wind Press
QNH
hPa
Press
MSL
hPa
Rain since
9am
mm
Dir  Spd
km/h
Gust
km/h
Spd
kts
Gust
kts
13/11:30pm 15.2 12.2 10.6 74 2.4 SSE 17 24 9 13 1018.0 1017.8 0.0
13/11:00pm 15.5 12.5 10.7 73 2.5 SSE 17 24 9 13 1018.2 1018.0 0.0
13/10:30pm 16.0 12.6 11.2 73 2.6 SSE 20 28 11 15 1018.1 1017.9 0.0
13/10:00pm 16.5 13.1 11.4 72 2.8 SSE 20 32 11 17 1018.3 1018.1 0.0
13/09:30pm 16.7 13.4 11.6 72 2.8 SSE 20 30 11 16 1018.4 1018.2 0.0
13/09:00pm 16.9 13.7 12.0 73 2.7 SSE 20 32 11 17 1018.3 1018.1 0.0
13/08:30pm 16.9 14.0 12.2 74 2.6 SSE 19 28 10 15 1018.2 1018.0 0.0
13/08:00pm 17.3 13.9 12.6 74 2.6 SSE 22 30 12 16 1018.0 1017.8 0.0
13/07:30pm 17.7 14.1 13.0 74 2.6 SSE 24 35 13 19 1017.7 1017.5 0.0
13/07:00pm 18.1 14.7 13.6 75 2.6 SSE 24 33 13 18 1017.4 1017.2 0.0
13/06:30pm 18.7 15.8 14.0 74 2.7 SSE 22 32 12 17 1017.1 1016.9 0.0
13/06:00pm 19.6 17.1 14.0 70 3.2 SSE 20 30 11 16 1016.8 1016.6 0.0
13/05:30pm 19.9 17.3 13.8 68 3.5 SE 20 30 11 16 1016.5 1016.3 0.0
13/05:00pm 20.0 16.5 14.4 70 3.3 SSE 26 37 14 20 1016.3 1016.1 0.0
13/04:30pm 21.0 18.0 14.9 68 3.6 SSE 24 33 13 18 1016.1 1015.9 0.0
13/04:00pm 20.6 18.4 14.9 70 3.4 SSE 20 32 11 17 1016.1 1015.9 0.0
13/03:30pm 21.3 18.3 14.9 67 3.8 SSE 24 37 13 20 1016.1 1015.9 0.0
13/03:00pm 21.8 18.3 15.4 67 3.8 SSE 28 37 15 20 1015.9 1015.7 0.0
13/02:30pm 22.9 20.0 15.2 62 4.6 S 24 33 13 18 1015.6 1015.4 0.0
13/02:00pm 23.8 21.4 15.3 59 5.1 SSW 22 35 12 19 1015.6 1015.4 0.0
13/01:30pm 23.4 21.9 16.7 66 4.1 S 20 28 11 15 1015.6 1015.4 0.0
13/01:00pm 22.2 20.1 17.1 73 3.1 SSW 24 37 13 20 1015.6 1015.4 0.0
13/12:30pm 23.0 20.7 15.8 64 4.4 S 22 39 12 21 1015.6 1015.4 0.0
13/12:00pm 23.9 21.5 16.4 63 4.6 S 24 37 13 20 1015.4 1015.2 0.0
13/11:30am 25.7 23.0 15.7 54 6.1 S 24 35 13 19 1015.2 1015.0 0.0
13/11:00am 24.1 22.1 15.6 59 5.1 SSW 20 33 11 18 1015.3 1015.1 0.0
13/10:30am 23.0 21.1 15.8 64 4.4 SSW 20 30 11 16 1015.3 1015.1 0.0
13/10:00am 22.7 20.8 15.8 65 4.2 SSW 20 32 11 17 1015.3 1015.1 0.0
13/09:30am 22.5 19.7 15.4 64 4.3 S 24 37 13 20 1015.2 1015.0 0.0
13/09:00am 22.9 20.8 15.2 62 4.6 S 20 33 11 18 1015.3 1015.1 0.0

Other Formats:

Comma delimited format used in spreadsheet applications
http://www.bom.gov.au/fwo/IDW60801/IDW60801.95641.axf

JavaScript Object Notation format (JSON) in row-major order
http://www.bom.gov.au/fwo/IDW60801/IDW60801.95641.json